createdAt,value
2019-03-21T00:02:12.618Z,9.03
2019-03-21T00:04:43.393Z,9.06
2019-03-21T00:07:12.810Z,8.99
2019-03-21T00:10:01.619Z,9.00
2019-03-21T00:12:31.133Z,9.05
2019-03-21T00:15:09.562Z,9.03
2019-03-21T00:17:42.550Z,9.03
2019-03-21T00:20:16.714Z,9.05
2019-03-21T00:22:46.149Z,9.04
2019-03-21T00:25:21.069Z,9.03
2019-03-21T00:27:50.517Z,9.05
2019-03-21T00:30:21.890Z,9.04
2019-03-21T00:32:51.771Z,9.07
2019-03-21T00:35:21.187Z,9.02
2019-03-21T00:37:50.654Z,9.02
2019-03-21T00:40:26.003Z,9.02
2019-03-21T00:42:55.617Z,9.00
2019-03-21T00:45:25.031Z,8.95
2019-03-21T00:47:54.478Z,8.94
2019-03-21T00:50:29.045Z,8.98
2019-03-21T00:52:58.479Z,9.00
2019-03-21T00:55:30.994Z,9.06
2019-03-21T00:58:00.432Z,9.10
2019-03-21T01:00:41.969Z,9.11
2019-03-21T01:03:12.250Z,9.12
2019-03-21T01:05:41.807Z,9.12
2019-03-21T01:08:11.927Z,9.10
2019-03-21T01:10:41.338Z,9.08
2019-03-21T01:13:10.845Z,9.09
2019-03-21T01:15:40.258Z,9.09
2019-03-21T01:18:10.108Z,9.07
2019-03-21T01:20:39.674Z,9.03
2019-03-21T01:23:09.117Z,9.06
2019-03-21T01:25:47.358Z,9.03
2019-03-21T01:28:16.810Z,9.02
2019-03-21T01:30:46.252Z,9.00
2019-03-21T01:33:15.699Z,8.97
2019-03-21T01:35:45.111Z,8.96
2019-03-21T01:38:14.556Z,8.94
2019-03-21T01:40:55.570Z,8.94
2019-03-21T01:43:25.021Z,8.96
2019-03-21T01:45:54.433Z,9.01
2019-03-21T01:48:23.882Z,9.02
2019-03-21T01:50:53.771Z,9.02
2019-03-21T01:53:23.211Z,9.06
2019-03-21T01:55:52.620Z,9.08
2019-03-21T01:58:22.067Z,9.08
2019-03-21T02:00:56.126Z,9.09
2019-03-21T02:03:25.556Z,9.09
2019-03-21T02:05:54.969Z,9.11
2019-03-21T02:08:24.415Z,9.09
2019-03-21T02:10:53.829Z,9.13
2019-03-21T02:13:23.278Z,9.14
2019-03-21T02:15:52.747Z,9.12
2019-03-21T02:18:22.217Z,9.10
2019-03-21T02:20:51.642Z,9.10
2019-03-21T02:23:21.079Z,9.09
2019-03-21T02:25:50.499Z,9.10
2019-03-21T02:28:19.937Z,9.07
2019-03-21T02:30:53.249Z,9.12
2019-03-21T02:33:37.321Z,9.13
2019-03-21T02:36:09.594Z,9.14
2019-03-21T02:38:39.041Z,9.14
2019-03-21T02:41:13.901Z,9.09
2019-03-21T02:43:43.820Z,9.09
2019-03-21T02:46:13.235Z,9.11
2019-03-21T02:48:42.694Z,9.11
2019-03-21T02:51:12.584Z,9.14
2019-03-21T02:53:42.037Z,9.19
2019-03-21T02:56:20.636Z,9.19
2019-03-21T02:58:50.083Z,9.20
2019-03-21T03:01:19.486Z,9.17
2019-03-21T03:03:48.931Z,9.17
2019-03-21T03:06:18.350Z,9.16
2019-03-21T03:08:47.795Z,9.15
2019-03-21T03:11:22.679Z,9.17
2019-03-21T03:13:52.173Z,9.17
2019-03-21T03:16:23.043Z,9.16
2019-03-21T03:18:52.489Z,9.17
2019-03-21T03:21:21.908Z,9.20
2019-03-21T03:23:51.346Z,9.15
2019-03-21T03:26:20.763Z,9.14
2019-03-21T03:28:50.206Z,9.13
2019-03-21T03:31:19.622Z,9.11
2019-03-21T03:33:49.079Z,9.03
2019-03-21T03:36:18.502Z,9.06
2019-03-21T03:38:47.940Z,9.06
2019-03-21T03:41:19.265Z,9.08
2019-03-21T03:43:48.712Z,8.99
2019-03-21T03:46:18.124Z,9.01
2019-03-21T03:48:47.586Z,8.96
2019-03-21T03:51:17.088Z,8.94
2019-03-21T03:53:46.530Z,8.90
2019-03-21T03:56:15.945Z,8.88
2019-03-21T03:58:54.212Z,8.85
2019-03-21T04:01:23.657Z,8.80
2019-03-21T04:03:53.070Z,8.76
2019-03-21T04:06:22.510Z,8.80
2019-03-21T04:08:51.923Z,8.86
2019-03-21T04:11:21.377Z,8.94
2019-03-21T04:13:50.787Z,8.93
2019-03-21T04:16:20.226Z,9.00
2019-03-21T04:18:49.642Z,9.04
2019-03-21T04:21:19.082Z,9.09
2019-03-21T04:23:48.498Z,9.05
2019-03-21T04:26:35.818Z,9.07
2019-03-21T04:29:05.230Z,9.06
2019-03-21T04:31:34.681Z,9.06
2019-03-21T04:34:07.341Z,9.12
2019-03-21T04:36:37.159Z,9.14
2019-03-21T04:39:08.504Z,9.16
2019-03-21T04:41:39.181Z,9.17
2019-03-21T04:44:08.597Z,9.11
2019-03-21T04:46:38.046Z,9.16
2019-03-21T04:49:07.472Z,9.07
2019-03-21T04:51:37.099Z,9.03
2019-03-21T04:54:06.527Z,9.01
2019-03-21T04:56:35.967Z,8.99
2019-03-21T04:59:05.394Z,9.00
2019-03-21T05:01:34.843Z,9.04
2019-03-21T05:04:04.266Z,9.04
2019-03-21T05:06:33.713Z,9.10
2019-03-21T05:09:03.129Z,9.12
2019-03-21T05:11:32.577Z,9.16
2019-03-21T05:14:01.986Z,9.13
2019-03-21T05:16:31.426Z,9.14
2019-03-21T05:19:00.840Z,9.13
2019-03-21T05:21:30.283Z,9.07
2019-03-21T05:23:59.694Z,9.00
2019-03-21T05:26:29.154Z,8.99
2019-03-21T05:28:58.564Z,9.01
2019-03-21T05:31:31.258Z,9.02
2019-03-21T05:34:00.670Z,9.02
2019-03-21T05:36:30.128Z,9.08
2019-03-21T05:38:59.542Z,9.04
2019-03-21T05:41:28.998Z,9.08
2019-03-21T05:44:02.159Z,9.11
2019-03-21T05:46:32.239Z,9.11
2019-03-21T05:49:01.654Z,9.18
2019-03-21T05:51:31.112Z,9.24
2019-03-21T05:54:00.528Z,9.31
2019-03-21T05:56:29.966Z,9.32
2019-03-21T05:58:59.385Z,9.37
2019-03-21T06:01:28.825Z,9.35
2019-03-21T06:03:58.240Z,9.38
2019-03-21T06:06:36.531Z,9.41
2019-03-21T06:09:09.543Z,9.46
2019-03-21T06:11:40.547Z,9.48
2019-03-21T06:14:10.262Z,9.55
2019-03-21T06:16:40.726Z,9.58
2019-03-21T06:19:16.369Z,9.58
2019-03-21T06:21:52.195Z,9.58
2019-03-21T06:24:25.835Z,9.61
2019-03-21T06:27:01.699Z,9.59
2019-03-21T06:29:31.553Z,9.67
2019-03-21T06:32:00.991Z,9.67
2019-03-21T06:34:30.573Z,9.71
2019-03-21T06:37:00.021Z,9.82
2019-03-21T06:39:29.528Z,9.97
2019-03-21T06:41:58.953Z,10.02
2019-03-21T06:44:29.842Z,10.04
2019-03-21T06:46:59.254Z,10.09
2019-03-21T06:49:28.710Z,10.20
2019-03-21T06:51:58.131Z,10.27
2019-03-21T06:54:27.595Z,10.42
2019-03-21T06:56:57.016Z,10.58
2019-03-21T06:59:26.484Z,10.72
2019-03-21T07:01:55.911Z,10.79
2019-03-21T07:04:25.367Z,10.85
2019-03-21T07:06:54.791Z,10.85
2019-03-21T07:09:24.261Z,10.94
2019-03-21T07:11:53.694Z,11.07
2019-03-21T07:14:23.163Z,11.24
2019-03-21T07:17:00.310Z,11.31
2019-03-21T07:19:24.018Z,11.26
2019-03-21T07:21:53.449Z,11.27
2019-03-21T07:24:22.911Z,11.19
2019-03-21T07:26:52.435Z,11.16
2019-03-21T07:29:21.909Z,11.19
2019-03-21T07:31:51.332Z,11.27
2019-03-21T07:34:20.788Z,11.31
2019-03-21T07:36:50.227Z,11.36
2019-03-21T07:39:19.762Z,11.35
2019-03-21T07:41:49.193Z,11.38
2019-03-21T07:44:18.655Z,11.44
2019-03-21T07:46:48.150Z,11.42
2019-03-21T07:49:17.548Z,11.47
2019-03-21T07:51:47.009Z,11.52
2019-03-21T07:54:16.433Z,11.60
2019-03-21T07:56:45.903Z,11.66
2019-03-21T07:59:15.324Z,11.68
2019-03-21T08:01:45.235Z,11.65
2019-03-21T08:04:14.663Z,11.64
2019-03-21T08:06:46.222Z,11.72
2019-03-21T08:09:15.650Z,11.75
2019-03-21T08:11:46.857Z,11.87
2019-03-21T08:14:16.551Z,11.88
2019-03-21T08:16:46.032Z,11.86
2019-03-21T08:19:15.457Z,11.98
2019-03-21T08:21:44.977Z,12.08
2019-03-21T08:24:15.467Z,12.12
2019-03-21T08:26:45.288Z,12.17
2019-03-21T08:29:14.755Z,12.18
2019-03-21T08:31:46.942Z,12.28
2019-03-21T08:34:16.384Z,12.42
2019-03-21T08:36:48.474Z,12.42
2019-03-21T08:39:17.964Z,12.60
2019-03-21T08:41:50.710Z,12.64
2019-03-21T08:44:20.128Z,12.70
2019-03-21T08:46:49.589Z,12.81
2019-03-21T08:49:19.012Z,12.80
2019-03-21T08:51:48.496Z,12.57
2019-03-21T08:54:18.136Z,12.70
2019-03-21T08:56:48.687Z,12.67
2019-03-21T08:59:20.579Z,12.82
2019-03-21T09:01:50.097Z,12.81
2019-03-21T09:04:19.525Z,12.99
2019-03-21T09:06:49.007Z,13.18
2019-03-21T09:09:18.853Z,13.20
2019-03-21T09:11:49.410Z,13.17
2019-03-21T09:14:19.146Z,13.12
2019-03-21T09:16:48.697Z,13.06
2019-03-21T09:19:18.133Z,13.05
2019-03-21T09:21:47.655Z,13.65
2019-03-21T09:24:17.592Z,14.40
2019-03-21T09:26:47.049Z,14.35
2019-03-21T09:29:17.856Z,14.78
2019-03-21T09:31:47.322Z,14.70
2019-03-21T09:34:16.743Z,15.96
2019-03-21T09:36:46.798Z,15.95
2019-03-21T09:39:16.214Z,14.80
2019-03-21T09:41:45.683Z,15.02
2019-03-21T09:44:29.109Z,15.94
2019-03-21T09:46:58.579Z,15.96
2019-03-21T09:49:28.000Z,15.70
2019-03-21T09:51:57.472Z,15.54
2019-03-21T09:54:26.898Z,15.07
2019-03-21T09:56:56.358Z,14.95
2019-03-21T09:59:25.783Z,16.47
2019-03-21T10:01:55.247Z,17.42
2019-03-21T10:04:24.666Z,18.66
2019-03-21T10:06:54.226Z,17.40
2019-03-21T10:09:23.926Z,16.63
2019-03-21T10:11:53.382Z,16.09
2019-03-21T10:14:22.830Z,15.74
2019-03-21T10:16:52.387Z,15.44
2019-03-21T10:19:21.824Z,15.04
2019-03-21T10:21:51.294Z,14.60
2019-03-21T10:24:20.804Z,14.56
2019-03-21T10:26:50.229Z,14.89
2019-03-21T10:29:19.682Z,15.66
2019-03-21T10:31:49.109Z,15.96
2019-03-21T10:34:18.566Z,15.98
2019-03-21T10:36:47.986Z,15.73
2019-03-21T10:39:17.532Z,15.75
2019-03-21T10:41:46.948Z,16.94
2019-03-21T10:44:16.420Z,16.44
2019-03-21T10:46:45.836Z,16.13
2019-03-21T10:49:17.408Z,15.70
2019-03-21T10:51:54.822Z,15.44
2019-03-21T10:54:18.007Z,15.37
2019-03-21T10:56:47.424Z,15.01
2019-03-21T10:59:16.886Z,14.91
2019-03-21T11:01:46.307Z,14.89
2019-03-21T11:04:15.771Z,15.04
2019-03-21T11:06:45.197Z,15.64
2019-03-21T11:09:14.643Z,16.94
2019-03-21T11:11:44.058Z,17.67
2019-03-21T11:14:13.508Z,18.34
2019-03-21T11:16:42.960Z,19.15
2019-03-21T11:19:19.278Z,19.10
2019-03-21T11:21:52.113Z,18.65
2019-03-21T11:24:28.117Z,18.63
2019-03-21T11:26:59.979Z,18.20
2019-03-21T11:29:30.123Z,18.04
2019-03-21T11:31:59.571Z,18.58
2019-03-21T11:34:29.028Z,18.78
2019-03-21T11:37:04.306Z,17.98
2019-03-21T11:39:35.161Z,18.53
2019-03-21T11:42:04.584Z,19.94
2019-03-21T11:44:34.070Z,19.76
2019-03-21T11:47:03.521Z,19.70
2019-03-21T11:49:33.001Z,18.53
2019-03-21T11:52:02.474Z,17.84
2019-03-21T11:54:32.164Z,17.17
2019-03-21T11:57:01.596Z,16.72
2019-03-21T11:59:46.150Z,17.38
2019-03-21T12:02:02.373Z,16.65
2019-03-21T12:04:31.832Z,16.10
2019-03-21T12:07:01.250Z,15.85
2019-03-21T12:09:30.703Z,16.09
2019-03-21T12:12:00.124Z,16.15
2019-03-21T12:14:29.594Z,15.96
2019-03-21T12:16:59.111Z,16.60
2019-03-21T12:19:28.593Z,16.69
2019-03-21T12:21:58.011Z,17.74
2019-03-21T12:24:28.000Z,17.02
2019-03-21T12:26:57.421Z,17.41
2019-03-21T12:29:27.176Z,17.18
2019-03-21T12:31:56.598Z,16.71
2019-03-21T12:34:26.052Z,16.21
2019-03-21T12:36:55.477Z,15.94
2019-03-21T12:39:25.283Z,15.45
2019-03-21T12:41:54.730Z,15.18
2019-03-21T12:44:24.370Z,14.80
2019-03-21T12:46:53.824Z,14.42
2019-03-21T12:49:23.251Z,14.21
2019-03-21T12:51:52.716Z,14.09
2019-03-21T12:54:22.142Z,14.06
2019-03-21T12:59:23.116Z,13.87
2019-03-21T13:01:52.638Z,13.84
2019-03-21T13:04:22.074Z,13.90
2019-03-21T13:06:51.549Z,13.84
2019-03-21T13:07:13.253Z,13.86
2019-03-21T13:09:20.973Z,13.85
2019-03-21T13:11:50.447Z,13.98
2019-03-21T13:14:19.868Z,13.99
2019-03-21T13:16:49.357Z,13.95
2019-03-21T13:19:18.782Z,13.94
2019-03-21T13:21:48.255Z,14.06
2019-03-21T13:24:19.739Z,14.17
2019-03-21T13:26:49.225Z,14.14
2019-03-21T13:29:20.130Z,14.24
2019-03-21T13:31:49.578Z,14.20
2019-03-21T13:34:19.009Z,14.15
2019-03-21T13:36:48.481Z,14.12
2019-03-21T13:39:17.902Z,14.12
2019-03-21T13:41:47.386Z,13.88
2019-03-21T13:44:16.810Z,13.85
2019-03-21T13:46:46.266Z,13.95
2019-03-21T13:49:15.691Z,13.95
2019-03-21T13:51:45.147Z,13.86
2019-03-21T13:54:14.571Z,13.81
2019-03-21T13:56:44.037Z,13.79
2019-03-21T13:59:13.481Z,13.76
2019-03-21T14:01:43.131Z,13.64
2019-03-21T14:04:12.548Z,13.69
2019-03-21T14:06:41.994Z,13.66
2019-03-21T14:09:11.408Z,13.79
2019-03-21T14:11:40.864Z,13.77
2019-03-21T14:14:10.282Z,13.69
2019-03-21T14:16:39.729Z,13.62
2019-03-21T14:19:09.148Z,13.48
2019-03-21T14:21:38.603Z,13.43
2019-03-21T14:24:08.025Z,13.30
2019-03-21T14:26:37.478Z,13.30
2019-03-21T14:29:12.621Z,13.24
2019-03-21T14:31:38.055Z,13.26
2019-03-21T14:34:07.507Z,13.24
2019-03-21T14:36:37.022Z,13.11
2019-03-21T14:39:07.413Z,13.16
2019-03-21T14:41:36.836Z,13.09
2019-03-21T14:44:07.196Z,13.10
2019-03-21T14:46:36.687Z,13.11
2019-03-21T14:49:06.141Z,13.12
2019-03-21T14:51:35.569Z,13.07
2019-03-21T14:54:05.020Z,12.98
2019-03-21T14:56:34.443Z,12.89
2019-03-21T14:59:04.362Z,12.83
2019-03-21T15:01:33.779Z,12.82
2019-03-21T15:04:03.440Z,12.79
2019-03-21T15:06:32.871Z,12.81
2019-03-21T15:09:02.328Z,12.79
2019-03-21T15:11:32.167Z,12.81
2019-03-21T15:14:01.616Z,12.78
2019-03-21T15:16:31.016Z,12.78
2019-03-21T15:19:00.472Z,12.82
2019-03-21T15:21:29.895Z,12.81
2019-03-21T15:24:00.023Z,12.78
2019-03-21T15:26:29.505Z,12.74
2019-03-21T15:28:58.957Z,12.72
2019-03-21T15:31:28.379Z,12.69
2019-03-21T15:33:58.405Z,12.71
2019-03-21T15:36:27.823Z,12.69
2019-03-21T15:38:57.278Z,12.57
2019-03-21T15:41:26.698Z,12.56
2019-03-21T15:43:56.146Z,12.56
2019-03-21T15:46:25.573Z,12.53
2019-03-21T15:48:55.027Z,12.55
2019-03-21T15:51:24.447Z,12.56
2019-03-21T15:53:56.588Z,12.54
2019-03-21T15:56:25.023Z,12.57
2019-03-21T15:58:54.476Z,12.56
2019-03-21T16:01:23.903Z,12.47
2019-03-21T16:03:53.347Z,12.50
2019-03-21T16:06:22.770Z,12.53
2019-03-21T16:08:52.217Z,12.53
2019-03-21T16:11:21.640Z,12.43
2019-03-21T16:13:51.086Z,12.43
2019-03-21T16:16:20.512Z,12.40
2019-03-21T16:18:49.963Z,12.38
2019-03-21T16:21:19.384Z,12.36
2019-03-21T16:23:48.839Z,12.30
2019-03-21T16:26:18.295Z,12.23
2019-03-21T16:28:47.743Z,12.20
2019-03-21T16:31:17.196Z,12.26
2019-03-21T16:33:46.624Z,12.13
2019-03-21T16:36:16.072Z,12.12
2019-03-21T16:38:45.524Z,12.15
2019-03-21T16:41:14.972Z,12.12
2019-03-21T16:43:44.400Z,12.06
2019-03-21T16:46:13.861Z,12.01
2019-03-21T16:48:43.283Z,12.01
2019-03-21T16:51:12.759Z,12.02
2019-03-21T16:53:43.901Z,12.01
2019-03-21T16:56:13.512Z,12.01
2019-03-21T16:58:42.941Z,11.95
2019-03-21T17:01:12.401Z,11.91
2019-03-21T17:03:41.817Z,11.94
2019-03-21T17:06:11.282Z,11.96
2019-03-21T17:08:40.707Z,11.92
2019-03-21T17:11:10.198Z,11.96
2019-03-21T17:13:39.583Z,11.98
2019-03-21T17:16:09.051Z,11.97
2019-03-21T17:18:38.464Z,11.99
2019-03-21T17:21:09.542Z,12.02
2019-03-21T17:23:39.252Z,12.04
2019-03-21T17:26:08.675Z,11.95
2019-03-21T17:28:38.118Z,11.89
2019-03-21T17:31:07.576Z,11.84
2019-03-21T17:33:37.069Z,11.82
2019-03-21T17:36:06.541Z,11.82
2019-03-21T17:38:35.994Z,11.77
2019-03-21T17:41:05.443Z,11.82
2019-03-21T17:43:34.868Z,11.83
2019-03-21T17:46:04.320Z,11.81
2019-03-21T17:48:33.740Z,11.82
2019-03-21T17:51:03.423Z,11.81
2019-03-21T17:53:33.256Z,11.80
2019-03-21T17:56:02.708Z,11.79
2019-03-21T17:58:32.199Z,11.79
2019-03-21T18:01:01.656Z,11.78
2019-03-21T18:03:31.093Z,11.76
2019-03-21T18:06:00.541Z,11.69
2019-03-21T18:08:29.971Z,11.69
2019-03-21T18:10:59.693Z,11.68
2019-03-21T18:13:29.203Z,11.72
2019-03-21T18:15:58.656Z,11.76
2019-03-21T18:18:28.079Z,11.72
2019-03-21T18:20:57.544Z,11.70
2019-03-21T18:23:26.965Z,11.69
2019-03-21T18:25:56.690Z,11.66
2019-03-21T18:28:26.123Z,11.71
2019-03-21T18:30:55.572Z,11.73
2019-03-21T18:33:25.025Z,11.69
2019-03-21T18:35:54.485Z,11.61
2019-03-21T18:38:23.943Z,11.66
2019-03-21T18:40:53.360Z,11.68
2019-03-21T18:43:22.811Z,11.68
2019-03-21T18:45:52.236Z,11.70
2019-03-21T18:48:21.707Z,11.69
2019-03-21T18:50:51.133Z,11.67
2019-03-21T18:53:20.585Z,11.63
2019-03-21T18:55:50.008Z,11.61
2019-03-21T18:58:19.460Z,11.62
2019-03-21T19:00:48.887Z,11.63
2019-03-21T19:03:18.340Z,11.59
2019-03-21T19:05:47.763Z,11.58
2019-03-21T19:08:17.216Z,11.59
2019-03-21T19:10:46.640Z,11.57
2019-03-21T19:13:16.093Z,11.63
2019-03-21T19:15:45.521Z,11.62
2019-03-21T19:18:14.968Z,11.60
2019-03-21T19:20:44.387Z,11.64
2019-03-21T19:23:13.844Z,11.61
2019-03-21T19:25:43.263Z,11.66
2019-03-21T19:28:12.714Z,11.63
2019-03-21T19:30:42.134Z,11.67
2019-03-21T19:33:11.592Z,11.72
2019-03-21T19:35:41.023Z,11.78
2019-03-21T19:38:10.481Z,11.77
2019-03-21T19:40:39.916Z,11.76
2019-03-21T19:43:09.371Z,11.81
2019-03-21T19:45:41.870Z,11.85
2019-03-21T19:48:11.325Z,11.86
2019-03-21T19:50:40.748Z,11.84
2019-03-21T19:53:10.206Z,11.84
2019-03-21T19:55:39.636Z,11.81
2019-03-21T19:58:09.089Z,11.85
2019-03-21T20:00:38.511Z,11.84
2019-03-21T20:03:07.960Z,11.77
2019-03-21T20:05:37.387Z,11.71
2019-03-21T20:08:06.836Z,11.72
2019-03-21T20:10:36.632Z,11.74
2019-03-21T20:13:06.180Z,11.75
2019-03-21T20:15:35.636Z,11.72
2019-03-21T20:18:05.065Z,11.74
2019-03-21T20:20:34.523Z,11.75
2019-03-21T20:23:04.023Z,11.69
2019-03-21T20:25:42.291Z,11.71
2019-03-21T20:28:04.597Z,11.65
2019-03-21T20:30:34.065Z,11.60
2019-03-21T20:33:03.488Z,11.56
2019-03-21T20:35:32.951Z,11.51
2019-03-21T20:38:02.413Z,11.42
2019-03-21T20:40:32.175Z,11.41
2019-03-21T20:43:02.136Z,11.36
2019-03-21T20:45:31.584Z,11.33
2019-03-21T20:48:01.364Z,11.23
2019-03-21T20:50:31.352Z,11.19
2019-03-21T20:53:00.774Z,11.19
2019-03-21T20:55:30.337Z,11.19
2019-03-21T20:57:59.770Z,11.16
2019-03-21T21:00:29.622Z,11.18
2019-03-21T21:02:59.306Z,11.13
2019-03-21T21:05:28.781Z,11.07
2019-03-21T21:07:58.208Z,11.13
2019-03-21T21:10:27.680Z,11.12
2019-03-21T21:12:57.100Z,11.09
2019-03-21T21:15:26.633Z,11.09
2019-03-21T21:17:56.065Z,11.08
2019-03-21T21:20:25.529Z,11.08
2019-03-21T21:22:54.947Z,11.10
2019-03-21T21:25:24.411Z,11.07
2019-03-21T21:27:53.832Z,11.10
2019-03-21T21:30:23.290Z,11.09
2019-03-21T21:32:52.712Z,11.09
2019-03-21T21:35:22.167Z,11.07
2019-03-21T21:37:51.596Z,11.05
2019-03-21T21:40:21.056Z,11.01
2019-03-21T21:42:50.522Z,11.01
2019-03-21T21:45:19.966Z,11.06
2019-03-21T21:47:49.387Z,11.09
2019-03-21T21:50:18.850Z,11.10
2019-03-21T21:52:48.280Z,11.10
2019-03-21T21:55:17.728Z,11.11
2019-03-21T21:57:47.149Z,11.12
2019-03-21T22:00:18.006Z,11.04
2019-03-21T22:02:47.436Z,11.03
2019-03-21T22:05:16.920Z,10.99
2019-03-21T22:07:46.220Z,11.04
2019-03-21T22:10:15.676Z,11.02
2019-03-21T22:12:45.096Z,11.04
2019-03-21T22:15:15.396Z,11.04
2019-03-21T22:17:44.818Z,11.03
2019-03-21T22:20:15.988Z,10.93
2019-03-21T22:22:45.410Z,10.94
2019-03-21T22:25:14.864Z,10.97
2019-03-21T22:27:44.343Z,10.99
2019-03-21T22:30:19.903Z,10.95
2019-03-21T22:32:49.351Z,10.92
2019-03-21T22:35:18.784Z,10.82
2019-03-21T22:37:48.240Z,10.74
2019-03-21T22:40:19.302Z,10.73
2019-03-21T22:42:48.769Z,10.66
2019-03-21T22:45:18.254Z,10.62
2019-03-21T22:47:50.248Z,10.55
2019-03-21T22:50:18.839Z,10.49
2019-03-21T22:52:48.301Z,10.43
2019-03-21T22:55:17.716Z,10.38
2019-03-21T22:57:47.173Z,10.34
2019-03-21T23:00:22.015Z,10.32
2019-03-21T23:02:51.479Z,10.33
2019-03-21T23:05:20.894Z,10.30
2019-03-21T23:07:50.352Z,10.36
2019-03-21T23:10:19.784Z,10.37
2019-03-21T23:12:49.252Z,10.37
2019-03-21T23:15:18.680Z,10.33
2019-03-21T23:17:48.128Z,10.30
2019-03-21T23:20:17.616Z,10.30
2019-03-21T23:22:47.063Z,10.30
2019-03-21T23:25:17.004Z,10.33
2019-03-21T23:27:46.528Z,10.38
2019-03-21T23:30:19.085Z,10.37
2019-03-21T23:32:48.549Z,10.30
2019-03-21T23:35:17.977Z,10.30
2019-03-21T23:37:47.433Z,10.28
2019-03-21T23:40:16.848Z,10.22
2019-03-21T23:42:46.300Z,10.22
2019-03-21T23:45:15.722Z,10.23
2019-03-21T23:47:45.179Z,10.16
2019-03-21T23:50:15.141Z,10.10
2019-03-21T23:52:44.594Z,10.07
2019-03-21T23:55:14.108Z,10.01
2019-03-21T23:57:43.552Z,10.04
